Time;durP1;ratioP1;P1;durP2;ratioP2;P2;SDS_P1;SDS_P2;PMS_P1;PMS_P2;Temp;Humidity;BMP_temperature;BMP_pressure;BME280_temperature;BME280_humidity;BME280_pressure;Samples;Min_cycle;Max_cycle;Signal;HPM_P1;HPM_P2
2023/05/08 00:03:00;;;;;;;;;;;15.00;99.90;;;;;;8386064;28;19932;-70
2023/05/08 00:07:01;;;;;;;;;;;14.90;99.90;;;;;;8383486;28;19982;-70
2023/05/08 00:11:03;;;;;;;;;;;14.90;99.90;;;;;;8399213;28;20176;-70
2023/05/08 00:15:05;;;;;;;;;;;14.90;99.90;;;;;;8369359;28;20654;-70
2023/05/08 00:19:07;;;;;;;;;;;14.90;99.90;;;;;;8386876;28;19929;-70
2023/05/08 00:23:09;;;;;;;;;;;14.90;99.90;;;;;;8398450;28;19999;-71
2023/05/08 00:27:11;;;;;;;;;;;14.90;99.90;;;;;;8386222;28;20027;-70
2023/05/08 00:31:13;;;;;;;;;;;14.90;99.90;;;;;;8366274;28;19924;-70
2023/05/08 00:35:15;;;;;;;;;;;14.90;99.90;;;;;;8369104;28;19924;-70
2023/05/08 00:39:17;;;;;;;;;;;14.80;99.90;;;;;;8384408;28;19948;-70
2023/05/08 00:43:24;;;;;;;;;;;14.80;99.90;;;;;;8389985;28;20281;-70
2023/05/08 00:47:26;;;;;;;;;;;14.80;99.90;;;;;;8381302;28;19925;-71
2023/05/08 00:51:28;;;;;;;;;;;14.80;99.90;;;;;;8367122;28;19934;-70
2023/05/08 00:55:30;;;;;;;;;;;14.80;99.90;;;;;;8367081;28;20415;-70
2023/05/08 00:59:32;;;;;;;;;;;14.70;99.90;;;;;;8383971;28;20401;-70
2023/05/08 01:03:35;;;;;;;;;;;14.70;99.90;;;;;;8388408;28;20319;-70
2023/05/08 01:07:37;;;;;;;;;;;14.60;99.90;;;;;;8376670;28;19932;-70
2023/05/08 01:11:44;;;;;;;;;;;14.60;99.90;;;;;;8376677;28;20439;-70
2023/05/08 01:15:49;;;;;;;;;;;14.50;99.90;;;;;;8377786;28;19955;-71
2023/05/08 01:19:51;;;;;;;;;;;14.50;99.90;;;;;;8389902;28;19924;-70
2023/05/08 01:24:13;;;;;;;;;;;14.40;99.90;;;;;;8382743;28;20591;-70
2023/05/08 01:28:26;;;;;;;;;;;14.40;99.90;;;;;;8341101;28;20276;-70
2023/05/08 01:32:33;;;;;;;;;;;14.30;99.90;;;;;;8380962;28;19933;-70
2023/05/08 01:36:35;;;;;;;;;;;14.30;99.90;;;;;;8378378;28;19924;-70
2023/05/08 01:40:40;;;;;;;;;;;14.20;99.90;;;;;;8365644;28;19925;-70
2023/05/08 01:44:48;;;;;;;;;;;14.20;99.90;;;;;;8381392;28;19925;-70
2023/05/08 01:48:59;;;;;;;;;;;14.10;99.90;;;;;;8376937;28;19933;-70
2023/05/08 01:53:09;;;;;;;;;;;14.10;99.90;;;;;;8393740;28;20380;-71
2023/05/08 01:57:11;;;;;;;;;;;14.00;99.90;;;;;;8361163;28;20618;-71
2023/05/08 02:01:13;;;;;;;;;;;14.00;99.90;;;;;;8365580;28;19932;-70
2023/05/08 02:05:16;;;;;;;;;;;13.90;99.90;;;;;;8359494;28;19939;-70
2023/05/08 02:09:21;;;;;;;;;;;13.90;99.90;;;;;;8378678;28;19932;-71
2023/05/08 02:13:24;;;;;;;;;;;13.90;99.90;;;;;;8370308;28;20333;-70
2023/05/08 02:17:26;;;;;;;;;;;13.80;99.90;;;;;;8395554;28;20356;-72
2023/05/08 02:21:29;;;;;;;;;;;13.80;99.90;;;;;;8381262;28;20022;-72
2023/05/08 02:25:31;;;;;;;;;;;13.80;99.90;;;;;;8385046;28;19925;-74
2023/05/08 02:29:33;;;;;;;;;;;13.70;99.90;;;;;;8399724;28;19925;-73
2023/05/08 02:33:37;;;;;;;;;;;13.70;99.90;;;;;;8401768;28;19924;-72
2023/05/08 02:37:40;;;;;;;;;;;13.70;99.90;;;;;;8386749;28;20273;-72
2023/05/08 02:41:42;;;;;;;;;;;13.60;99.90;;;;;;8382252;28;20018;-72
2023/05/08 02:45:48;;;;;;;;;;;13.60;99.90;;;;;;8387687;28;19967;-72
2023/05/08 02:50:02;;;;;;;;;;;13.60;99.90;;;;;;8391769;28;19939;-72
2023/05/08 02:54:08;;;;;;;;;;;13.50;99.90;;;;;;8387437;28;19932;-73
2023/05/08 02:58:29;;;;;;;;;;;13.50;99.90;;;;;;8366634;28;19924;-72
2023/05/08 03:02:34;;;;;;;;;;;13.50;99.90;;;;;;8382497;28;20257;-72
2023/05/08 03:06:45;;;;;;;;;;;13.50;99.90;;;;;;8373296;28;19950;-72
2023/05/08 03:10:48;;;;;;;;;;;13.40;99.90;;;;;;8389490;28;19975;-72
2023/05/08 03:15:01;;;;;;;;;;;13.40;99.90;;;;;;8387827;28;20364;-72
2023/05/08 03:19:04;;;;;;;;;;;13.30;99.90;;;;;;8387014;28;19933;-72
2023/05/08 03:23:07;;;;;;;;;;;13.30;99.90;;;;;;8386837;28;19943;-73
2023/05/08 03:27:09;;;;;;;;;;;13.20;99.90;;;;;;8381464;28;20309;-72
2023/05/08 03:31:12;;;;;;;;;;;13.20;99.90;;;;;;8375964;28;20750;-72
2023/05/08 03:35:14;;;;;;;;;;;13.10;99.90;;;;;;8385653;28;19933;-72
2023/05/08 03:39:16;;;;;;;;;;;13.10;99.90;;;;;;8401826;28;20024;-72
2023/05/08 03:43:19;;;;;;;;;;;13.10;99.90;;;;;;8393206;28;20431;-72
2023/05/08 03:47:20;;;;;;;;;;;13.00;99.90;;;;;;8370887;28;19932;-73
2023/05/08 03:51:22;;;;;;;;;;;13.00;99.90;;;;;;8390823;28;19928;-72
2023/05/08 03:55:24;;;;;;;;;;;13.00;99.90;;;;;;8382456;28;19933;-73
2023/05/08 03:59:35;;;;;;;;;;;13.00;99.90;;;;;;8385536;28;20285;-73
2023/05/08 04:03:46;;;;;;;;;;;12.90;99.90;;;;;;8384747;28;19924;-73
2023/05/08 04:08:13;;;;;;;;;;;12.90;99.90;;;;;;8380769;28;19933;-74
2023/05/08 04:12:26;;;;;;;;;;;12.90;99.90;;;;;;8376025;28;19932;-73
2023/05/08 04:16:29;;;;;;;;;;;12.80;99.90;;;;;;8385232;28;19924;-72
2023/05/08 04:20:31;;;;;;;;;;;12.80;99.90;;;;;;8378196;28;20564;-73
2023/05/08 04:24:35;;;;;;;;;;;12.80;99.90;;;;;;8381308;28;19959;-73
2023/05/08 04:28:37;;;;;;;;;;;12.80;99.90;;;;;;8374976;28;20024;-72
2023/05/08 04:32:40;;;;;;;;;;;12.80;99.90;;;;;;8377649;28;20423;-72
2023/05/08 04:36:44;;;;;;;;;;;12.80;99.90;;;;;;8386318;28;19960;-73
2023/05/08 04:40:45;;;;;;;;;;;12.80;99.90;;;;;;8364591;28;20352;-72
2023/05/08 04:44:47;;;;;;;;;;;12.80;99.90;;;;;;8384194;28;19932;-73
2023/05/08 04:48:49;;;;;;;;;;;12.80;99.90;;;;;;8384529;28;19974;-72
2023/05/08 04:52:50;;;;;;;;;;;12.80;99.90;;;;;;8384659;28;19947;-72
2023/05/08 04:56:52;;;;;;;;;;;12.80;99.90;;;;;;8374616;28;19967;-72
2023/05/08 05:00:54;;;;;;;;;;;12.90;99.90;;;;;;8389356;28;19932;-72
2023/05/08 05:04:57;;;;;;;;;;;12.90;99.90;;;;;;8364069;28;19932;-72
2023/05/08 05:08:59;;;;;;;;;;;13.00;99.90;;;;;;8370647;28;19932;-72
2023/05/08 05:13:00;;;;;;;;;;;13.10;99.90;;;;;;8385285;28;19931;-72
2023/05/08 05:17:02;;;;;;;;;;;13.20;99.90;;;;;;8384881;28;20078;-72
2023/05/08 05:21:04;;;;;;;;;;;13.30;99.90;;;;;;8366050;28;19924;-72
2023/05/08 05:25:06;;;;;;;;;;;13.30;99.90;;;;;;8373477;28;19924;-72
2023/05/08 05:29:07;;;;;;;;;;;13.40;99.90;;;;;;8383558;28;20338;-72
2023/05/08 05:33:09;;;;;;;;;;;13.50;99.90;;;;;;8392390;28;19929;-72
2023/05/08 05:37:10;;;;;;;;;;;13.60;99.90;;;;;;8386214;28;19981;-72
2023/05/08 05:41:12;;;;;;;;;;;13.70;99.90;;;;;;8388684;28;19929;-72
2023/05/08 05:45:14;;;;;;;;;;;13.80;99.90;;;;;;8390520;28;19931;-72
2023/05/08 05:49:16;;;;;;;;;;;13.90;99.90;;;;;;8371751;28;19978;-72
2023/05/08 05:53:17;;;;;;;;;;;14.00;99.90;;;;;;8371329;28;19979;-72
2023/05/08 05:57:19;;;;;;;;;;;14.10;99.90;;;;;;8370703;28;19964;-73
2023/05/08 06:01:23;;;;;;;;;;;14.10;99.90;;;;;;8386194;28;19931;-72
2023/05/08 06:05:25;;;;;;;;;;;14.20;99.90;;;;;;8362975;28;19964;-72
2023/05/08 06:09:26;;;;;;;;;;;14.40;99.90;;;;;;8370440;28;19956;-72
2023/05/08 06:13:28;;;;;;;;;;;14.50;99.90;;;;;;8368408;28;19924;-72
2023/05/08 06:17:30;;;;;;;;;;;14.80;99.90;;;;;;8382710;28;20380;-72
2023/05/08 06:26:35;;;;;;;;;;;15.30;99.90;;;;;;8386540;28;19958;-72
2023/05/08 06:30:37;;;;;;;;;;;15.50;99.90;;;;;;8366612;28;20273;-72
2023/05/08 06:34:38;;;;;;;;;;;15.70;99.90;;;;;;8364833;28;19935;-72
2023/05/08 06:38:40;;;;;;;;;;;15.90;99.90;;;;;;8382272;28;19929;-72
2023/05/08 06:42:42;;;;;;;;;;;16.00;99.90;;;;;;8379959;28;19977;-72
2023/05/08 06:46:43;;;;;;;;;;;16.20;99.90;;;;;;8384055;28;19935;-72
2023/05/08 06:50:46;;;;;;;;;;;16.30;99.90;;;;;;8367596;28;19929;-72
2023/05/08 06:54:48;;;;;;;;;;;16.40;99.90;;;;;;8387630;28;19970;-72
2023/05/08 06:58:50;;;;;;;;;;;16.50;99.90;;;;;;8370767;28;20336;-72
2023/05/08 07:03:05;;;;;;;;;;;16.50;99.90;;;;;;8373629;28;19925;-72
2023/05/08 07:07:07;;;;;;;;;;;16.40;99.90;;;;;;8371319;28;19954;-72
2023/05/08 07:11:09;;;;;;;;;;;16.40;99.90;;;;;;8383874;28;19932;-72
2023/05/08 07:15:11;;;;;;;;;;;16.20;99.90;;;;;;8389233;28;19931;-72
2023/05/08 07:19:25;;;;;;;;;;;16.20;99.90;;;;;;8389276;28;20031;-72
2023/05/08 07:23:27;;;;;;;;;;;16.10;99.90;;;;;;8389913;28;20007;-73
2023/05/08 07:27:28;;;;;;;;;;;16.10;99.90;;;;;;8392035;28;20282;-72
2023/05/08 07:31:30;;;;;;;;;;;16.10;99.90;;;;;;8372020;28;19924;-72
2023/05/08 07:35:32;;;;;;;;;;;16.20;99.90;;;;;;8386475;28;19932;-72
2023/05/08 07:39:34;;;;;;;;;;;16.20;99.90;;;;;;8387219;28;20304;-72
2023/05/08 07:43:36;;;;;;;;;;;16.20;99.90;;;;;;8372506;28;19964;-72
2023/05/08 07:47:38;;;;;;;;;;;16.30;99.90;;;;;;8388950;28;20291;-72
2023/05/08 07:51:40;;;;;;;;;;;16.30;99.90;;;;;;8387590;28;19929;-72
2023/05/08 07:55:41;;;;;;;;;;;16.40;99.90;;;;;;8374740;28;20360;-70
2023/05/08 07:59:43;;;;;;;;;;;16.60;99.90;;;;;;8390212;28;19931;-70
2023/05/08 08:03:45;;;;;;;;;;;16.70;99.90;;;;;;8385219;28;19924;-70
2023/05/08 08:07:47;;;;;;;;;;;16.90;99.90;;;;;;8386473;28;19935;-70
2023/05/08 08:11:48;;;;;;;;;;;17.00;99.90;;;;;;8390757;28;19924;-70
2023/05/08 08:15:50;;;;;;;;;;;17.10;99.90;;;;;;8387678;28;20016;-70
2023/05/08 08:19:52;;;;;;;;;;;17.20;99.90;;;;;;8403491;28;19928;-70
2023/05/08 08:23:54;;;;;;;;;;;17.20;99.90;;;;;;8384845;28;19924;-70
2023/05/08 08:27:55;;;;;;;;;;;17.20;99.90;;;;;;8387903;28;19960;-70
2023/05/08 08:31:57;;;;;;;;;;;17.10;99.90;;;;;;8379693;28;20031;-71
2023/05/08 08:35:58;;;;;;;;;;;17.10;99.90;;;;;;8389839;28;19979;-70
2023/05/08 08:40:01;;;;;;;;;;;17.20;99.90;;;;;;8391656;28;19991;-70
2023/05/08 08:44:02;;;;;;;;;;;17.30;99.90;;;;;;8374436;28;19929;-71
2023/05/08 08:48:07;;;;;;;;;;;17.40;99.90;;;;;;8387697;28;19931;-71
2023/05/08 08:52:27;;;;;;;;;;;17.60;99.90;;;;;;8388742;28;19929;-70
2023/05/08 08:56:29;;;;;;;;;;;17.80;99.90;;;;;;8385972;28;19941;-70
2023/05/08 09:00:31;;;;;;;;;;;17.90;99.90;;;;;;8366077;28;20005;-70
2023/05/08 09:04:33;;;;;;;;;;;18.00;99.90;;;;;;8382835;28;19964;-70
2023/05/08 09:08:36;;;;;;;;;;;18.10;99.90;;;;;;8368043;28;19932;-70
2023/05/08 09:12:39;;;;;;;;;;;18.10;99.90;;;;;;8356645;28;19976;-71
2023/05/08 09:16:41;;;;;;;;;;;18.10;99.90;;;;;;8347548;28;19978;-70
2023/05/08 09:20:43;;;;;;;;;;;18.10;99.90;;;;;;8357928;28;20265;-70
2023/05/08 09:24:55;;;;;;;;;;;18.20;99.90;;;;;;8364286;28;20016;-70
2023/05/08 09:29:17;;;;;;;;;;;18.20;99.90;;;;;;8359919;28;20323;-70
2023/05/08 09:33:19;;;;;;;;;;;18.10;99.90;;;;;;8361291;28;19943;-70
2023/05/08 09:37:21;;;;;;;;;;;18.00;99.90;;;;;;8359003;28;19974;-70
2023/05/08 09:41:23;;;;;;;;;;;17.90;99.90;;;;;;8343494;28;19979;-70
2023/05/08 09:45:31;;;;;;;;;;;17.90;99.90;;;;;;8356603;28;20014;-70
2023/05/08 09:49:33;;;;;;;;;;;17.90;99.90;;;;;;8368643;28;19924;-71
2023/05/08 09:53:34;;;;;;;;;;;17.90;99.90;;;;;;8371292;28;19924;-71
2023/05/08 09:57:38;;;;;;;;;;;18.00;99.90;;;;;;8341127;28;19933;-71
2023/05/08 10:01:39;;;;;;;;;;;18.10;99.90;;;;;;8353567;28;19998;-71
2023/05/08 10:05:41;;;;;;;;;;;18.10;99.90;;;;;;8354401;28;19929;-71
2023/05/08 10:09:56;;;;;;;;;;;18.20;99.90;;;;;;8364055;28;20016;-71
2023/05/08 10:13:58;;;;;;;;;;;18.30;99.90;;;;;;8352862;28;19932;-71
2023/05/08 10:18:04;;;;;;;;;;;18.30;99.90;;;;;;8358296;28;20621;-70
2023/05/08 10:22:10;;;;;;;;;;;18.30;99.90;;;;;;8362920;28;20380;-71
2023/05/08 10:26:13;;;;;;;;;;;18.40;99.90;;;;;;8356342;28;20296;-70
2023/05/08 10:30:16;;;;;;;;;;;18.40;99.90;;;;;;8361320;28;19947;-71
2023/05/08 10:34:18;;;;;;;;;;;18.40;99.90;;;;;;8343944;28;19933;-70
2023/05/08 10:38:20;;;;;;;;;;;18.60;99.90;;;;;;8355900;28;19932;-71
2023/05/08 10:42:22;;;;;;;;;;;18.60;99.90;;;;;;8375745;28;19932;-70
2023/05/08 10:46:39;;;;;;;;;;;18.70;99.90;;;;;;8347925;28;19963;-71
2023/05/08 10:50:40;;;;;;;;;;;18.70;99.90;;;;;;8366270;28;21009;-70
2023/05/08 10:55:03;;;;;;;;;;;18.70;99.90;;;;;;8366257;28;20333;-70
2023/05/08 10:59:05;;;;;;;;;;;18.70;99.90;;;;;;8373023;28;19928;-71
2023/05/08 11:03:07;;;;;;;;;;;18.90;99.90;;;;;;8365654;28;19932;-70
2023/05/08 11:07:29;;;;;;;;;;;19.00;99.90;;;;;;8365591;28;19924;-70
2023/05/08 11:11:32;;;;;;;;;;;19.20;99.90;;;;;;8361982;28;19968;-71
2023/05/08 11:15:38;;;;;;;;;;;19.20;99.90;;;;;;8370251;28;19978;-71
2023/05/08 11:19:53;;;;;;;;;;;19.30;99.90;;;;;;8359142;28;19939;-70
2023/05/08 11:23:55;;;;;;;;;;;19.60;99.90;;;;;;8357075;28;19925;-71
2023/05/08 11:28:03;;;;;;;;;;;19.70;99.90;;;;;;8364116;28;20020;-71
2023/05/08 11:32:05;;;;;;;;;;;19.80;99.90;;;;;;8360325;28;19925;-71
2023/05/08 11:36:06;;;;;;;;;;;19.80;99.90;;;;;;8364897;28;20444;-71
2023/05/08 11:40:34;;;;;;;;;;;19.70;99.90;;;;;;8362269;28;19931;-70
2023/05/08 11:44:36;;;;;;;;;;;19.70;99.90;;;;;;8360913;28;19925;-70
2023/05/08 11:48:37;;;;;;;;;;;19.70;99.90;;;;;;8367133;28;19931;-71
2023/05/08 11:52:40;;;;;;;;;;;19.70;99.90;;;;;;8360114;28;20341;-70
2023/05/08 11:56:42;;;;;;;;;;;19.60;99.90;;;;;;8366840;28;19933;-71
2023/05/08 12:00:45;;;;;;;;;;;19.50;99.90;;;;;;8360347;28;20364;-71
2023/05/08 12:04:47;;;;;;;;;;;19.60;99.90;;;;;;8346040;28;19971;-71
2023/05/08 12:08:49;;;;;;;;;;;19.80;99.90;;;;;;8362547;28;19929;-71
2023/05/08 12:12:50;;;;;;;;;;;20.10;99.90;;;;;;8345566;28;20415;-71
2023/05/08 12:16:52;;;;;;;;;;;20.30;99.90;;;;;;8361940;28;20451;-71
2023/05/08 12:21:00;;;;;;;;;;;20.60;99.90;;;;;;8364161;28;20288;-71
2023/05/08 12:25:02;;;;;;;;;;;20.80;99.90;;;;;;8361873;28;19925;-71
2023/05/08 12:29:05;;;;;;;;;;;20.80;99.90;;;;;;8365270;28;20288;-71
2023/05/08 12:33:07;;;;;;;;;;;20.80;99.90;;;;;;8362043;28;19935;-71
2023/05/08 12:37:08;;;;;;;;;;;20.80;99.90;;;;;;8355119;28;20375;-71
2023/05/08 12:41:10;;;;;;;;;;;20.80;99.90;;;;;;8371261;28;20383;-71
2023/05/08 12:45:16;;;;;;;;;;;21.10;99.90;;;;;;8362962;28;20155;-71
2023/05/08 12:49:28;;;;;;;;;;;21.30;99.90;;;;;;8371328;28;20315;-71
2023/05/08 12:53:31;;;;;;;;;;;21.50;99.90;;;;;;8369528;28;20355;-71
2023/05/08 12:57:35;;;;;;;;;;;21.60;99.90;;;;;;8359837;28;19932;-71
2023/05/08 13:01:39;;;;;;;;;;;21.70;99.90;;;;;;8357273;28;23195;-70
2023/05/08 13:05:44;;;;;;;;;;;21.80;99.90;;;;;;8346581;28;19929;-71
2023/05/08 13:10:01;;;;;;;;;;;21.80;99.90;;;;;;8362020;28;20283;-71
2023/05/08 13:14:02;;;;;;;;;;;21.90;99.90;;;;;;8353413;28;19929;-71
2023/05/08 13:18:06;;;;;;;;;;;21.80;99.90;;;;;;8362307;28;19925;-71
2023/05/08 13:22:07;;;;;;;;;;;21.70;99.90;;;;;;8361524;28;19929;-71
2023/05/08 13:26:09;;;;;;;;;;;21.40;99.90;;;;;;8362869;28;19939;-71
2023/05/08 13:30:11;;;;;;;;;;;21.30;99.90;;;;;;8364075;28;19979;-71
2023/05/08 13:34:13;;;;;;;;;;;21.30;99.90;;;;;;8363358;28;20292;-71
2023/05/08 13:38:15;;;;;;;;;;;21.20;99.90;;;;;;8346120;28;19960;-71
2023/05/08 13:42:17;;;;;;;;;;;21.10;99.90;;;;;;8362391;28;20024;-71
2023/05/08 13:46:18;;;;;;;;;;;21.00;99.90;;;;;;8359709;28;19979;-71
2023/05/08 13:50:20;;;;;;;;;;;21.00;99.90;;;;;;8364510;28;19932;-71
2023/05/08 13:54:22;;;;;;;;;;;21.10;99.90;;;;;;8360936;28;20300;-71
2023/05/08 13:58:24;;;;;;;;;;;21.30;99.90;;;;;;8363391;28;19935;-71
2023/05/08 14:02:26;;;;;;;;;;;21.70;99.90;;;;;;8362823;28;19976;-72
2023/05/08 14:06:28;;;;;;;;;;;22.10;99.90;;;;;;8361648;28;20281;-71
2023/05/08 14:10:30;;;;;;;;;;;22.30;99.90;;;;;;8361075;28;20349;-71
2023/05/08 14:14:31;;;;;;;;;;;22.30;99.90;;;;;;8364049;28;19968;-71
2023/05/08 14:18:35;;;;;;;;;;;22.40;99.90;;;;;;8362614;28;19959;-71
2023/05/08 14:22:36;;;;;;;;;;;22.50;99.90;;;;;;8361226;28;19932;-71
2023/05/08 14:26:38;;;;;;;;;;;22.60;99.90;;;;;;8360196;28;19931;-71
2023/05/08 14:30:40;;;;;;;;;;;22.80;99.90;;;;;;8359737;28;19984;-71
2023/05/08 14:34:41;;;;;;;;;;;22.80;99.90;;;;;;8357422;28;19964;-71
2023/05/08 14:38:43;;;;;;;;;;;22.40;99.90;;;;;;8361316;28;20023;-72
2023/05/08 14:42:45;;;;;;;;;;;22.00;99.90;;;;;;8361869;28;20407;-71
2023/05/08 14:46:46;;;;;;;;;;;21.80;99.90;;;;;;8361464;28;19931;-71
2023/05/08 14:50:48;;;;;;;;;;;22.00;99.90;;;;;;8341761;28;20396;-70
2023/05/08 14:54:51;;;;;;;;;;;22.20;99.90;;;;;;8343512;28;19971;-71
2023/05/08 14:58:54;;;;;;;;;;;22.30;99.90;;;;;;8359991;28;19933;-71
2023/05/08 15:02:56;;;;;;;;;;;22.20;99.90;;;;;;8343033;28;19924;-71
2023/05/08 15:06:57;;;;;;;;;;;22.10;99.90;;;;;;8352336;28;20287;-71
2023/05/08 15:10:59;;;;;;;;;;;22.10;99.90;;;;;;8358810;28;19934;-71
2023/05/08 15:15:01;;;;;;;;;;;22.10;99.90;;;;;;8360295;28;19967;-71
2023/05/08 15:19:04;;;;;;;;;;;22.00;99.90;;;;;;8355427;28;20016;-71
2023/05/08 15:23:06;;;;;;;;;;;21.90;99.90;;;;;;8360672;28;19929;-71
2023/05/08 15:27:08;;;;;;;;;;;21.80;99.90;;;;;;8359984;28;19925;-71
2023/05/08 15:31:10;;;;;;;;;;;21.70;99.90;;;;;;8371642;28;20385;-71
2023/05/08 15:35:12;;;;;;;;;;;21.70;99.90;;;;;;8357727;28;20399;-71
2023/05/08 15:39:14;;;;;;;;;;;21.70;99.90;;;;;;8350455;28;19933;-71
2023/05/08 15:43:15;;;;;;;;;;;21.50;99.90;;;;;;8346511;28;20365;-71
2023/05/08 15:47:18;;;;;;;;;;;21.30;99.90;;;;;;8364477;28;19928;-72
2023/05/08 15:51:19;;;;;;;;;;;21.10;99.90;;;;;;8366628;28;19931;-71
2023/05/08 15:55:21;;;;;;;;;;;20.90;99.90;;;;;;8367235;28;19925;-71
2023/05/08 15:59:24;;;;;;;;;;;20.60;99.90;;;;;;8364032;28;19968;-71
2023/05/08 16:03:25;;;;;;;;;;;20.50;99.90;;;;;;8362035;28;19925;-71
2023/05/08 16:07:27;;;;;;;;;;;20.50;99.90;;;;;;8364802;28;19925;-71
2023/05/08 16:11:30;;;;;;;;;;;20.60;99.90;;;;;;8362207;28;20373;-71
2023/05/08 16:15:31;;;;;;;;;;;20.60;99.90;;;;;;8346334;28;19925;-71
2023/05/08 16:19:37;;;;;;;;;;;20.60;99.90;;;;;;8344156;28;20038;-71
2023/05/08 16:23:41;;;;;;;;;;;20.60;99.90;;;;;;8363498;28;19932;-71
2023/05/08 16:27:42;;;;;;;;;;;20.60;99.90;;;;;;8362731;28;20582;-71
2023/05/08 16:31:44;;;;;;;;;;;20.50;99.90;;;;;;8355753;28;20031;-71
2023/05/08 16:35:46;;;;;;;;;;;20.50;99.90;;;;;;8362090;28;20314;-71
2023/05/08 16:39:47;;;;;;;;;;;20.60;99.90;;;;;;8363688;28;19931;-71
2023/05/08 16:43:49;;;;;;;;;;;20.70;99.90;;;;;;8363702;28;19933;-71
2023/05/08 16:47:50;;;;;;;;;;;20.90;99.90;;;;;;8361581;28;20039;-72
2023/05/08 16:51:52;;;;;;;;;;;21.10;99.90;;;;;;8358895;28;20421;-71
2023/05/08 16:55:54;;;;;;;;;;;21.20;99.90;;;;;;8360139;28;19928;-71
2023/05/08 16:59:55;;;;;;;;;;;21.20;99.90;;;;;;8369721;28;19929;-71
2023/05/08 17:03:57;;;;;;;;;;;21.10;99.90;;;;;;8363468;28;20356;-71
2023/05/08 17:07:59;;;;;;;;;;;21.10;99.90;;;;;;8362395;28;19932;-71
2023/05/08 17:12:01;;;;;;;;;;;21.00;99.90;;;;;;8357853;28;19932;-71
2023/05/08 17:16:02;;;;;;;;;;;20.90;99.90;;;;;;8365665;28;19939;-71
2023/05/08 17:20:04;;;;;;;;;;;20.80;99.90;;;;;;8356841;28;19940;-71
2023/05/08 17:24:06;;;;;;;;;;;20.80;99.90;;;;;;8359468;28;19932;-71
2023/05/08 17:28:08;;;;;;;;;;;20.70;99.90;;;;;;8361648;28;19939;-70
2023/05/08 17:32:09;;;;;;;;;;;20.50;99.90;;;;;;8360876;28;19924;-71
2023/05/08 17:36:11;;;;;;;;;;;20.50;99.90;;;;;;8359146;28;19924;-71
2023/05/08 17:40:13;;;;;;;;;;;20.40;99.90;;;;;;8359682;28;19936;-71
2023/05/08 17:44:15;;;;;;;;;;;20.20;99.90;;;;;;8342481;28;19931;-71
2023/05/08 17:48:17;;;;;;;;;;;20.20;99.90;;;;;;8359553;28;20384;-71
2023/05/08 17:52:18;;;;;;;;;;;20.10;99.90;;;;;;8362019;28;19934;-71
2023/05/08 17:56:22;;;;;;;;;;;20.00;99.90;;;;;;8359552;28;19933;-71
2023/05/08 18:00:23;;;;;;;;;;;19.90;99.90;;;;;;8365659;28;19929;-71
2023/05/08 18:04:25;;;;;;;;;;;19.80;99.90;;;;;;8345462;28;19979;-71
2023/05/08 18:08:27;;;;;;;;;;;19.70;99.90;;;;;;8354799;28;19986;-71
2023/05/08 18:12:28;;;;;;;;;;;19.50;99.90;;;;;;8366239;28;20394;-71
2023/05/08 18:16:30;;;;;;;;;;;19.50;99.90;;;;;;8347775;28;19932;-71
2023/05/08 18:20:31;;;;;;;;;;;19.40;99.90;;;;;;8353510;28;20494;-71
2023/05/08 18:24:33;;;;;;;;;;;19.40;99.90;;;;;;8360704;28;19932;-71
2023/05/08 18:28:35;;;;;;;;;;;19.40;99.90;;;;;;8367306;28;19983;-71
2023/05/08 18:32:36;;;;;;;;;;;19.30;99.90;;;;;;8360053;28;19964;-70
2023/05/08 18:36:38;;;;;;;;;;;19.30;99.90;;;;;;8359529;28;20418;-71
2023/05/08 18:40:40;;;;;;;;;;;19.30;99.90;;;;;;8357995;28;20011;-71
2023/05/08 18:44:41;;;;;;;;;;;19.30;99.90;;;;;;8376521;28;19932;-70
2023/05/08 18:48:43;;;;;;;;;;;19.30;99.90;;;;;;8376614;28;19956;-71
2023/05/08 18:52:44;;;;;;;;;;;19.30;99.90;;;;;;8341396;28;20011;-71
2023/05/08 18:56:46;;;;;;;;;;;19.20;99.90;;;;;;8353559;28;20407;-71
2023/05/08 19:00:48;;;;;;;;;;;19.10;99.90;;;;;;8354428;28;20393;-71
2023/05/08 19:04:50;;;;;;;;;;;19.00;99.90;;;;;;8355711;28;20338;-71
2023/05/08 19:08:51;;;;;;;;;;;19.00;99.90;;;;;;8374504;28;19937;-71
2023/05/08 19:12:53;;;;;;;;;;;18.90;99.90;;;;;;8349642;28;19932;-71
2023/05/08 19:16:55;;;;;;;;;;;18.80;99.90;;;;;;8347352;28;19925;-71
2023/05/08 19:20:59;;;;;;;;;;;18.80;99.90;;;;;;8365998;28;19928;-70
2023/05/08 19:25:01;;;;;;;;;;;18.60;99.90;;;;;;8371423;28;19947;-71
2023/05/08 19:29:03;;;;;;;;;;;18.60;99.90;;;;;;8361098;28;19947;-71
2023/05/08 19:33:04;;;;;;;;;;;18.50;99.90;;;;;;8360699;28;20030;-71
2023/05/08 19:37:06;;;;;;;;;;;18.40;99.90;;;;;;8362628;28;19924;-71
2023/05/08 19:41:09;;;;;;;;;;;18.30;99.90;;;;;;8360542;28;19928;-71
2023/05/08 19:45:11;;;;;;;;;;;18.20;99.90;;;;;;8348211;28;19932;-70
2023/05/08 19:49:14;;;;;;;;;;;18.20;99.90;;;;;;8349530;28;20223;-71
2023/05/08 19:53:16;;;;;;;;;;;18.00;99.90;;;;;;8361619;28;19928;-71
2023/05/08 19:57:18;;;;;;;;;;;17.90;99.90;;;;;;8362183;28;19924;-71
2023/05/08 20:01:19;;;;;;;;;;;17.80;99.90;;;;;;8358166;28;19925;-71
2023/05/08 20:05:21;;;;;;;;;;;17.80;99.90;;;;;;8347762;28;19925;-71
2023/05/08 20:09:23;;;;;;;;;;;17.70;99.90;;;;;;8354193;28;19925;-70
2023/05/08 20:13:25;;;;;;;;;;;17.70;99.90;;;;;;8356108;28;20015;-71
2023/05/08 20:17:27;;;;;;;;;;;17.70;99.90;;;;;;8353360;28;20023;-70
2023/05/08 20:21:31;;;;;;;;;;;17.60;99.90;;;;;;8350417;28;20422;-71
2023/05/08 20:25:32;;;;;;;;;;;17.60;99.90;;;;;;8370850;28;19928;-71
2023/05/08 20:29:34;;;;;;;;;;;17.50;99.90;;;;;;8360358;28;19933;-71
2023/05/08 20:33:36;;;;;;;;;;;17.50;99.90;;;;;;8358177;28;20407;-71
2023/05/08 20:37:44;;;;;;;;;;;17.40;99.90;;;;;;8360893;28;20388;-71
2023/05/08 20:41:46;;;;;;;;;;;17.40;99.90;;;;;;8362234;28;20298;-71
2023/05/08 20:45:48;;;;;;;;;;;17.40;99.90;;;;;;8366949;28;21211;-71
2023/05/08 20:49:49;;;;;;;;;;;17.40;99.90;;;;;;8346675;28;19968;-71
2023/05/08 20:53:51;;;;;;;;;;;17.40;99.90;;;;;;8354411;28;20002;-70
2023/05/08 20:57:53;;;;;;;;;;;17.40;99.90;;;;;;8364887;28;19967;-71
2023/05/08 21:01:54;;;;;;;;;;;17.30;99.90;;;;;;8347257;28;19934;-71
2023/05/08 21:05:56;;;;;;;;;;;17.30;99.90;;;;;;8383985;28;19931;-71
2023/05/08 21:09:58;;;;;;;;;;;17.20;99.90;;;;;;8372922;28;20419;-71
2023/05/08 21:14:00;;;;;;;;;;;17.20;99.90;;;;;;8383211;28;19924;-71
2023/05/08 21:18:02;;;;;;;;;;;17.10;99.90;;;;;;8378465;28;19934;-70
2023/05/08 21:22:03;;;;;;;;;;;17.10;99.90;;;;;;8377319;28;19924;-71
2023/05/08 21:26:05;;;;;;;;;;;17.10;99.90;;;;;;8373332;28;19936;-70
2023/05/08 21:30:08;;;;;;;;;;;17.00;99.90;;;;;;8382055;28;20384;-71
2023/05/08 21:34:09;;;;;;;;;;;17.00;99.90;;;;;;8401144;28;19928;-71
2023/05/08 21:38:11;;;;;;;;;;;17.00;99.90;;;;;;8369109;28;19924;-71
2023/05/08 21:42:13;;;;;;;;;;;16.90;99.90;;;;;;8364229;28;19924;-71
2023/05/08 21:46:14;;;;;;;;;;;16.90;99.90;;;;;;8380998;28;19924;-71
2023/05/08 21:50:16;;;;;;;;;;;16.80;99.90;;;;;;8362263;28;19925;-71
2023/05/08 21:54:21;;;;;;;;;;;16.80;99.90;;;;;;8365250;28;20023;-71
2023/05/08 21:58:22;;;;;;;;;;;16.80;99.90;;;;;;8363806;28;19929;-71
2023/05/08 22:02:24;;;;;;;;;;;16.70;99.90;;;;;;8379618;28;19933;-71
2023/05/08 22:06:28;;;;;;;;;;;16.70;99.90;;;;;;8370478;28;21340;-71
2023/05/08 22:10:29;;;;;;;;;;;16.70;99.90;;;;;;8378373;28;20018;-71
2023/05/08 22:14:31;;;;;;;;;;;16.70;99.90;;;;;;8380355;28;20144;-71
2023/05/08 22:18:33;;;;;;;;;;;16.70;99.90;;;;;;8383231;28;20396;-71
2023/05/08 22:22:34;;;;;;;;;;;16.70;99.90;;;;;;8376411;28;19932;-71
2023/05/08 22:26:36;;;;;;;;;;;16.70;99.90;;;;;;8376425;28;20003;-71
2023/05/08 22:30:37;;;;;;;;;;;16.60;99.90;;;;;;8379296;28;20313;-71
2023/05/08 22:34:39;;;;;;;;;;;16.60;99.90;;;;;;8381454;28;19924;-71
2023/05/08 22:38:41;;;;;;;;;;;16.60;99.90;;;;;;8393814;28;20289;-71
2023/05/08 22:42:43;;;;;;;;;;;16.60;99.90;;;;;;8381649;28;19931;-71
2023/05/08 22:46:45;;;;;;;;;;;16.50;99.90;;;;;;8360044;28;19967;-71
2023/05/08 22:50:47;;;;;;;;;;;16.50;99.90;;;;;;8364673;28;19987;-70
2023/05/08 22:54:49;;;;;;;;;;;16.50;99.90;;;;;;8369368;28;19931;-71
2023/05/08 22:58:53;;;;;;;;;;;16.50;99.90;;;;;;8384301;28;19924;-70
2023/05/08 23:02:55;;;;;;;;;;;16.50;99.90;;;;;;8390311;28;19970;-70
2023/05/08 23:06:57;;;;;;;;;;;16.40;99.90;;;;;;8378802;28;19982;-71
2023/05/08 23:10:58;;;;;;;;;;;16.40;99.90;;;;;;8366816;28;19936;-71
2023/05/08 23:15:00;;;;;;;;;;;16.40;99.90;;;;;;8387262;28;20368;-71
2023/05/08 23:19:03;;;;;;;;;;;16.30;99.90;;;;;;8371023;28;19931;-70
2023/05/08 23:23:05;;;;;;;;;;;16.30;99.90;;;;;;8385723;28;19930;-71
2023/05/08 23:27:07;;;;;;;;;;;16.30;99.90;;;;;;8388017;28;19942;-71
2023/05/08 23:31:08;;;;;;;;;;;16.30;99.90;;;;;;8380503;28;19954;-70
2023/05/08 23:35:10;;;;;;;;;;;16.30;99.90;;;;;;8368562;28;19924;-71
2023/05/08 23:39:12;;;;;;;;;;;16.20;99.90;;;;;;8388467;28;20066;-71